createdAt,value
2022-09-14T00:01:53.814Z,99.90
2022-09-14T00:11:57.539Z,99.90
2022-09-14T00:22:03.295Z,99.90
2022-09-14T00:32:05.873Z,99.90
2022-09-14T00:42:09.020Z,99.90
2022-09-14T00:52:23.574Z,99.90
2022-09-14T01:02:29.380Z,99.90
2022-09-14T01:12:53.477Z,99.90
2022-09-14T01:23:06.134Z,99.90
2022-09-14T01:33:22.316Z,99.90
2022-09-14T01:43:32.668Z,99.90
2022-09-14T01:53:51.896Z,99.90
2022-09-14T02:04:03.046Z,99.90
2022-09-14T02:14:05.821Z,99.90
2022-09-14T02:24:07.778Z,99.90
2022-09-14T02:34:22.373Z,99.90
2022-09-14T02:45:00.573Z,99.90
2022-09-14T02:55:15.033Z,99.90
2022-09-14T03:05:16.634Z,99.90
2022-09-14T03:15:19.202Z,99.90
2022-09-14T03:25:21.821Z,99.90
2022-09-14T03:35:24.166Z,99.90
2022-09-14T03:45:26.184Z,99.90
2022-09-14T03:55:28.415Z,99.90
2022-09-14T04:05:30.678Z,99.90
2022-09-14T04:15:32.389Z,99.90
2022-09-14T04:25:34.386Z,99.90
2022-09-14T04:35:36.321Z,99.90
2022-09-14T04:45:39.656Z,99.90
2022-09-14T04:55:47.061Z,99.90
2022-09-14T05:05:54.464Z,99.90
2022-09-14T05:15:58.285Z,99.90
2022-09-14T05:26:00.642Z,99.90
2022-09-14T05:36:13.823Z,99.90
2022-09-14T05:46:25.807Z,99.90
2022-09-14T05:56:38.187Z,99.90
2022-09-14T06:06:40.895Z,99.90
2022-09-14T06:16:44.147Z,99.90
2022-09-14T06:26:47.410Z,99.90
2022-09-14T06:36:50.155Z,99.90
2022-09-14T06:47:04.603Z,99.90
2022-09-14T06:57:09.862Z,99.90
2022-09-14T07:07:14.953Z,99.90
2022-09-14T07:17:18.848Z,99.90
2022-09-14T07:27:20.871Z,99.90
2022-09-14T07:37:22.899Z,99.90
2022-09-14T07:47:24.870Z,99.90
2022-09-14T07:57:45.427Z,99.90
2022-09-14T08:07:50.620Z,99.90
2022-09-14T08:17:55.278Z,99.90
2022-09-14T08:27:57.464Z,99.90
2022-09-14T08:37:59.065Z,99.90
2022-09-14T08:48:01.384Z,99.90
2022-09-14T08:58:28.524Z,99.90
2022-09-14T09:08:43.940Z,99.90
2022-09-14T09:19:07.387Z,99.90
2022-09-14T09:29:15.187Z,99.90
2022-09-14T09:39:38.469Z,99.90
2022-09-14T09:49:42.322Z,99.90
2022-09-14T09:59:49.007Z,99.90
2022-09-14T10:10:08.467Z,99.90
2022-09-14T10:20:24.878Z,99.90
2022-09-14T10:30:29.423Z,99.90
2022-09-14T10:40:43.842Z,99.90
2022-09-14T10:51:04.107Z,99.90
2022-09-14T11:01:06.059Z,99.90
2022-09-14T11:11:33.919Z,99.90
2022-09-14T11:21:48.008Z,99.90
2022-09-14T11:32:19.816Z,92.80
2022-09-14T11:42:33.985Z,87.20
2022-09-14T11:52:37.162Z,90.90
2022-09-14T12:02:40.317Z,93.10
2022-09-14T12:12:44.451Z,96.80
2022-09-14T12:22:49.983Z,95.10
2022-09-14T12:32:54.323Z,99.60
2022-09-14T12:42:56.967Z,96.00
2022-09-14T12:53:08.881Z,99.30
2022-09-14T13:03:30.804Z,99.90
2022-09-14T13:13:36.661Z,99.90
2022-09-14T13:23:44.724Z,99.90
2022-09-14T13:33:55.489Z,99.90
2022-09-14T13:43:59.985Z,99.90
2022-09-14T13:54:26.712Z,99.90
2022-09-14T14:04:41.184Z,99.90
2022-09-14T14:14:43.258Z,99.90
2022-09-14T14:25:11.928Z,99.90
2022-09-14T14:35:22.070Z,99.90
2022-09-14T14:45:32.206Z,99.90
2022-09-14T14:55:39.611Z,99.90
2022-09-14T15:05:50.968Z,99.90
2022-09-14T15:15:55.579Z,99.90
2022-09-14T15:25:59.740Z,99.90
2022-09-14T15:36:02.031Z,99.90
2022-09-14T15:46:08.344Z,99.90
2022-09-14T15:56:23.865Z,99.90
2022-09-14T16:06:27.545Z,99.90
2022-09-14T16:16:30.922Z,99.90
2022-09-14T16:26:37.171Z,99.90
2022-09-14T16:36:44.662Z,99.90
2022-09-14T16:46:48.725Z,99.90
2022-09-14T16:56:50.944Z,99.90
2022-09-14T17:06:58.328Z,99.90
2022-09-14T17:17:01.926Z,99.90
2022-09-14T17:27:03.906Z,99.90
2022-09-14T17:37:06.366Z,99.90
2022-09-14T17:47:09.763Z,99.90
2022-09-14T17:57:12.641Z,99.90
2022-09-14T18:07:14.987Z,99.90
2022-09-14T18:17:19.403Z,99.90
2022-09-14T18:27:22.139Z,99.90
2022-09-14T18:37:27.945Z,99.90
2022-09-14T18:47:29.983Z,99.90
2022-09-14T18:57:32.287Z,99.90
2022-09-14T19:07:43.818Z,99.90
2022-09-14T19:17:46.548Z,99.90
2022-09-14T19:27:49.344Z,99.90
